sensor_id;sensor_type;location;lat;lon;timestamp;P1;durP1;ratioP1;P2;durP2;ratioP2
6926;SDS011;3503;50.07605000;8.86719200;2023-01-23T00:08:44;10.40;;;3.97;;
6926;SDS011;3503;50.07605000;8.86719200;2023-01-23T00:23:48;7.77;;;4.13;;
6926;SDS011;3503;50.07605000;8.86719200;2023-01-23T00:38:52;8.73;;;4.27;;
6926;SDS011;3503;50.07605000;8.86719200;2023-01-23T00:53:55;17.63;;;5.10;;
6926;SDS011;3503;50.07605000;8.86719200;2023-01-23T01:08:58;8.77;;;4.10;;
6926;SDS011;3503;50.07605000;8.86719200;2023-01-23T01:24:01;9.20;;;5.00;;
6926;SDS011;3503;50.07605000;8.86719200;2023-01-23T01:39:06;9.87;;;5.10;;
6926;SDS011;3503;50.07605000;8.86719200;2023-01-23T01:54:15;13.87;;;5.17;;
6926;SDS011;3503;50.07605000;8.86719200;2023-01-23T02:09:21;12.13;;;5.40;;
6926;SDS011;3503;50.07605000;8.86719200;2023-01-23T02:24:28;12.47;;;5.27;;
6926;SDS011;3503;50.07605000;8.86719200;2023-01-23T02:39:35;8.50;;;4.83;;
6926;SDS011;3503;50.07605000;8.86719200;2023-01-23T02:54:38;8.73;;;4.00;;
6926;SDS011;3503;50.07605000;8.86719200;2023-01-23T03:09:41;9.83;;;5.37;;
6926;SDS011;3503;50.07605000;8.86719200;2023-01-23T03:24:48;9.80;;;4.50;;
6926;SDS011;3503;50.07605000;8.86719200;2023-01-23T03:39:51;13.30;;;6.30;;
6926;SDS011;3503;50.07605000;8.86719200;2023-01-23T03:55:12;8.90;;;4.10;;
6926;SDS011;3503;50.07605000;8.86719200;2023-01-23T04:10:15;6.87;;;3.30;;
6926;SDS011;3503;50.07605000;8.86719200;2023-01-23T04:25:18;10.17;;;4.57;;
6926;SDS011;3503;50.07605000;8.86719200;2023-01-23T04:40:21;11.80;;;3.60;;
6926;SDS011;3503;50.07605000;8.86719200;2023-01-23T04:55:24;7.40;;;3.40;;
6926;SDS011;3503;50.07605000;8.86719200;2023-01-23T05:10:28;7.13;;;3.53;;
6926;SDS011;3503;50.07605000;8.86719200;2023-01-23T05:25:31;10.77;;;4.07;;
6926;SDS011;3503;50.07605000;8.86719200;2023-01-23T05:40:34;8.43;;;3.60;;
6926;SDS011;3503;50.07605000;8.86719200;2023-01-23T05:55:37;7.63;;;3.60;;
6926;SDS011;3503;50.07605000;8.86719200;2023-01-23T06:10:40;7.80;;;3.70;;
6926;SDS011;3503;50.07605000;8.86719200;2023-01-23T06:25:44;10.93;;;4.77;;
6926;SDS011;3503;50.07605000;8.86719200;2023-01-23T06:40:47;7.17;;;3.90;;
6926;SDS011;3503;50.07605000;8.86719200;2023-01-23T06:55:50;10.57;;;4.30;;
6926;SDS011;3503;50.07605000;8.86719200;2023-01-23T07:10:53;11.40;;;4.50;;
6926;SDS011;3503;50.07605000;8.86719200;2023-01-23T07:25:58;11.17;;;3.57;;
6926;SDS011;3503;50.07605000;8.86719200;2023-01-23T07:41:01;11.17;;;4.10;;
6926;SDS011;3503;50.07605000;8.86719200;2023-01-23T07:56:05;11.47;;;5.30;;
6926;SDS011;3503;50.07605000;8.86719200;2023-01-23T08:11:09;9.43;;;4.40;;
6926;SDS011;3503;50.07605000;8.86719200;2023-01-23T08:26:13;12.30;;;3.80;;
6926;SDS011;3503;50.07605000;8.86719200;2023-01-23T08:41:17;9.90;;;4.53;;
6926;SDS011;3503;50.07605000;8.86719200;2023-01-23T08:56:21;13.63;;;3.50;;
6926;SDS011;3503;50.07605000;8.86719200;2023-01-23T09:11:25;8.43;;;3.83;;
6926;SDS011;3503;50.07605000;8.86719200;2023-01-23T09:26:28;22.13;;;5.40;;
6926;SDS011;3503;50.07605000;8.86719200;2023-01-23T09:41:31;51.03;;;7.70;;
6926;SDS011;3503;50.07605000;8.86719200;2023-01-23T09:56:35;17.90;;;4.57;;
6926;SDS011;3503;50.07605000;8.86719200;2023-01-23T10:11:43;18.67;;;6.60;;
6926;SDS011;3503;50.07605000;8.86719200;2023-01-23T10:26:55;9.37;;;5.33;;
6926;SDS011;3503;50.07605000;8.86719200;2023-01-23T10:42:04;8.37;;;4.70;;
6926;SDS011;3503;50.07605000;8.86719200;2023-01-23T10:57:19;12.10;;;4.90;;
6926;SDS011;3503;50.07605000;8.86719200;2023-01-23T11:12:25;8.80;;;4.80;;
6926;SDS011;3503;50.07605000;8.86719200;2023-01-23T11:27:29;7.10;;;3.80;;
6926;SDS011;3503;50.07605000;8.86719200;2023-01-23T11:42:32;9.70;;;3.90;;
6926;SDS011;3503;50.07605000;8.86719200;2023-01-23T11:57:41;7.17;;;4.03;;
6926;SDS011;3503;50.07605000;8.86719200;2023-01-23T12:12:56;8.90;;;4.13;;
6926;SDS011;3503;50.07605000;8.86719200;2023-01-23T12:28:12;13.23;;;4.77;;
6926;SDS011;3503;50.07605000;8.86719200;2023-01-23T12:43:27;10.83;;;4.23;;
6926;SDS011;3503;50.07605000;8.86719200;2023-01-23T12:58:39;7.27;;;4.33;;
6926;SDS011;3503;50.07605000;8.86719200;2023-01-23T13:13:43;11.53;;;5.63;;
6926;SDS011;3503;50.07605000;8.86719200;2023-01-23T13:28:47;89.20;;;11.73;;
6926;SDS011;3503;50.07605000;8.86719200;2023-01-23T13:43:54;33.70;;;8.07;;
6926;SDS011;3503;50.07605000;8.86719200;2023-01-23T13:58:58;10.07;;;5.00;;
6926;SDS011;3503;50.07605000;8.86719200;2023-01-23T14:14:01;12.57;;;5.50;;
6926;SDS011;3503;50.07605000;8.86719200;2023-01-23T14:29:22;10.70;;;5.00;;
6926;SDS011;3503;50.07605000;8.86719200;2023-01-23T14:44:27;10.90;;;5.20;;
6926;SDS011;3503;50.07605000;8.86719200;2023-01-23T14:59:32;13.70;;;5.07;;
6926;SDS011;3503;50.07605000;8.86719200;2023-01-23T15:14:37;10.10;;;5.03;;
6926;SDS011;3503;50.07605000;8.86719200;2023-01-23T15:29:41;8.73;;;4.47;;
6926;SDS011;3503;50.07605000;8.86719200;2023-01-23T15:44:45;6.97;;;3.87;;
6926;SDS011;3503;50.07605000;8.86719200;2023-01-23T15:59:48;18.97;;;6.33;;
6926;SDS011;3503;50.07605000;8.86719200;2023-01-23T16:14:51;20.07;;;5.77;;
6926;SDS011;3503;50.07605000;8.86719200;2023-01-23T16:29:54;13.93;;;5.93;;
6926;SDS011;3503;50.07605000;8.86719200;2023-01-23T16:44:57;8.87;;;4.70;;
6926;SDS011;3503;50.07605000;8.86719200;2023-01-23T17:00:01;13.87;;;6.20;;
6926;SDS011;3503;50.07605000;8.86719200;2023-01-23T17:15:05;13.93;;;6.93;;
6926;SDS011;3503;50.07605000;8.86719200;2023-01-23T17:30:11;11.93;;;5.80;;
6926;SDS011;3503;50.07605000;8.86719200;2023-01-23T17:45:17;10.37;;;5.97;;
6926;SDS011;3503;50.07605000;8.86719200;2023-01-23T18:00:22;13.63;;;6.67;;
6926;SDS011;3503;50.07605000;8.86719200;2023-01-23T18:15:29;13.03;;;6.17;;
6926;SDS011;3503;50.07605000;8.86719200;2023-01-23T18:30:37;13.30;;;6.30;;
6926;SDS011;3503;50.07605000;8.86719200;2023-01-23T18:45:45;17.40;;;7.83;;
6926;SDS011;3503;50.07605000;8.86719200;2023-01-23T19:00:52;17.30;;;8.57;;
6926;SDS011;3503;50.07605000;8.86719200;2023-01-23T19:16:03;18.20;;;9.10;;
6926;SDS011;3503;50.07605000;8.86719200;2023-01-23T19:31:13;18.07;;;8.10;;
6926;SDS011;3503;50.07605000;8.86719200;2023-01-23T19:46:23;19.07;;;9.00;;
6926;SDS011;3503;50.07605000;8.86719200;2023-01-23T20:01:28;19.57;;;8.30;;
6926;SDS011;3503;50.07605000;8.86719200;2023-01-23T20:16:35;28.03;;;11.03;;
6926;SDS011;3503;50.07605000;8.86719200;2023-01-23T20:31:40;17.83;;;8.90;;
6926;SDS011;3503;50.07605000;8.86719200;2023-01-23T20:46:43;18.57;;;8.07;;
6926;SDS011;3503;50.07605000;8.86719200;2023-01-23T21:01:46;20.20;;;8.47;;
6926;SDS011;3503;50.07605000;8.86719200;2023-01-23T21:17:22;20.20;;;8.20;;
6926;SDS011;3503;50.07605000;8.86719200;2023-01-23T21:32:25;18.23;;;8.63;;
6926;SDS011;3503;50.07605000;8.86719200;2023-01-23T21:47:29;17.77;;;7.13;;
6926;SDS011;3503;50.07605000;8.86719200;2023-01-23T22:02:32;15.93;;;7.13;;
6926;SDS011;3503;50.07605000;8.86719200;2023-01-23T22:17:35;19.63;;;8.03;;
6926;SDS011;3503;50.07605000;8.86719200;2023-01-23T22:32:38;18.43;;;8.13;;
6926;SDS011;3503;50.07605000;8.86719200;2023-01-23T22:47:41;14.27;;;7.10;;
6926;SDS011;3503;50.07605000;8.86719200;2023-01-23T23:02:44;18.70;;;9.90;;
6926;SDS011;3503;50.07605000;8.86719200;2023-01-23T23:17:47;17.93;;;8.07;;
6926;SDS011;3503;50.07605000;8.86719200;2023-01-23T23:32:50;19.33;;;8.40;;
6926;SDS011;3503;50.07605000;8.86719200;2023-01-23T23:47:53;15.63;;;7.27;;
